Latest Weather Observations for Avalon

IDV60801

Issued at 2:05 am EST Saturday 30 August 2014 (issued every 30 minutes, with the page automatically refreshed every 10 minutes)

About weather observations | Map of weather stations | Latest weather observations for VIC | Other Formats
Station Details ID: 087113 Name: AVALON AIRPORT Lat: -38.03 Lon: 144.48 Height: 10.6 m
Data from the previous 72 hours. | See also: Recent months at Avalon
Date/Time
EST
Temp
°C
App
Temp
°C
Dew
Point
Rel
Hum
%
Delta-T
°C
Wind Press
QNH
hPa
Press
MSL
hPa
Rain
since 9 am
mm
Dir
 
Spd
km/h
Gust
km/h
Spd
kts
Gust
kts
30/02:00am 7.0 5.0 6.9 99 0.0 NW 7 9 4 5 1026.6 1026.6 0.0
30/01:57am 7.1 5.1 7.0 99 0.0 NW 7 9 4 5 1026.6 1026.6 0.0
30/01:30am 7.1 4.7 7.0 99 0.0 NW 9 11 5 6 1026.9 1026.9 0.0
30/01:00am 7.8 5.9 7.7 99 0.0 WNW 7 7 4 4 1026.9 1026.9 0.0
30/12:58am 7.9 6.3 7.8 99 0.0 W 6 7 3 4 1026.9 1026.9 0.0
30/12:30am 8.1 6.3 8.0 99 0.0 WSW 7 7 4 4 1027.1 1027.1 0.0
30/12:00am 9.4 7.6 9.3 99 0.0 W 9 13 5 7 1027.4 1027.4 0.0
 
Date/Time
EST
Temp
°C
App
Temp
°C
Dew
Point
Rel
Hum
%
Delta-T
°C
Wind Press
QNH
hPa
Press
MSL
hPa
Rain
since 9 am
mm
Dir
 
Spd
km/h
Gust
km/h
Spd
kts
Gust
kts
29/11:30pm 9.7 8.5 9.6 99 0.0 W 6 7 3 4 1027.7 1027.7 0.0
29/11:11pm 9.7 8.3 9.6 99 0.0 W 7 9 4 5 1027.8 1027.8 0.0
29/11:05pm 9.7 8.3 9.6 99 0.0 W 7 9 4 5 1027.8 1027.8 0.0
29/11:00pm 9.7 8.3 9.6 99 0.0 W 7 9 4 5 1027.9 1027.9 0.0
29/10:30pm 9.2 8.6 9.1 99 0.0 W 2 11 1 6 1028.1 1028.1 0.0
29/10:00pm 8.9 7.5 8.8 99 0.0 NW 6 7 3 4 1028.2 1028.2 0.0
29/09:30pm 8.2 7.8 8.1 99 0.0 CALM 0 0 0 0 1028.4 1028.4 0.0
29/09:00pm 7.9 7.4 7.8 99 0.0 CALM 0 0 0 0 1028.4 1028.4 0.0
29/08:31pm 7.6 6.9 7.0 96 0.3 CALM 0 0 0 0 1028.3 1028.3 0.0
29/08:30pm 7.4 6.6 6.7 95 0.3 CALM 0 0 0 0 1028.3 1028.3 0.0
29/08:00pm 8.9 7.4 8.3 96 0.3 S 6 7 3 4 1028.3 1028.3 0.0
29/07:30pm 9.5 7.9 8.7 95 0.4 S 7 9 4 5 1028.1 1028.1 0.0
29/07:00pm 9.7 7.3 8.5 92 0.6 S 11 13 6 7 1028.2 1028.2 0.0
29/06:30pm 9.9 8.1 8.0 88 0.9 SSE 7 9 4 5 1028.2 1028.2 0.0
29/06:00pm 11.4 10.8 8.8 84 1.3 E 2 6 1 3 1028.0 1028.0 0.0
29/05:30pm 12.8 11.5 9.1 78 1.9 E 6 9 3 5 1027.8 1027.8 0.0
29/05:00pm 13.6 11.8 9.3 75 2.2 E 9 11 5 6 1027.8 1027.8 0.0
29/04:30pm 14.1 11.4 9.1 72 2.5 E 13 17 7 9 1027.9 1027.9 0.0
29/04:00pm 14.2 11.6 9.4 73 2.4 E 13 20 7 11 1027.9 1027.9 0.0
29/03:30pm 14.0 10.6 9.2 73 2.4 E 17 22 9 12 1027.8 1027.8 0.0
29/03:00pm 14.1 11.1 9.1 72 2.5 E 15 20 8 11 1027.8 1027.8 0.0
29/02:30pm 14.9 12.1 10.1 73 2.5 E 15 20 8 11 1028.1 1028.1 0.0
29/02:00pm 14.2 12.0 9.2 72 2.5 E 11 20 6 11 1028.2 1028.2 0.0
29/01:30pm 14.4 12.2 9.4 72 2.6 ENE 11 17 6 9 1028.4 1028.4 0.0
29/01:00pm 14.3 13.0 9.9 75 2.3 ENE 7 15 4 8 1028.6 1028.6 0.0
29/12:30pm 14.2 12.1 9.8 75 2.3 E 11 17 6 9 1029.2 1029.2 0.0
29/12:03pm 13.2 12.1 10.7 85 1.3 ENE 7 11 4 6 1029.5 1029.5 0.0
29/12:00pm 13.1 12.0 10.8 86 1.2 ENE 7 9 4 5 1029.6 1029.6 0.0
29/11:30am 12.6 11.9 11.3 92 0.7 NNE 6 9 3 5 1030.0 1030.0 0.0
29/11:00am 11.9 12.0 11.4 97 0.3 W 2 6 1 3 1030.1 1030.1 0.0
29/10:47am 11.7 11.8 11.5 99 0.1 WNW 2 7 1 4 1030.1 1030.1 0.0
29/10:30am 11.4 10.5 11.2 99 0.1 NW 7 9 4 5 1030.2 1030.2 0.0
29/10:00am 10.7 9.6 10.5 99 0.1 NNW 7 11 4 6 1030.4 1030.4 0.0
29/09:30am 9.5 8.3 9.4 99 0.0 NW 6 7 3 4 1030.4 1030.4 0.0
29/09:00am 9.1 7.8 9.1 100 0.0 NW 6 7 3 4 1030.3 1030.3 0.0
29/08:41am 8.9 7.3 8.8 99 0.0 W 7 9 4 5 1030.0 1030.0 0.0
29/08:30am 8.6 7.1 8.5 99 0.0 W 6 7 3 4 1029.9 1029.9 0.0
29/08:29am 8.7 7.2 8.6 99 0.0 W 6 7 3 4 1029.9 1029.9 0.0
29/08:00am 8.0 5.4 7.9 99 0.0 WNW 11 13 6 7 1029.5 1029.5 0.0
29/07:30am 7.5 4.4 7.4 99 0.0 WNW 13 15 7 8 1029.4 1029.4 0.0
29/07:00am 7.8 5.2 7.7 99 0.0 NW 11 11 6 6 1029.1 1029.1 0.0
29/06:30am 8.1 6.3 8.0 99 0.0 W 7 9 4 5 1028.9 1028.9 0.0
29/06:16am 8.2 6.4 8.1 99 0.0 WSW 7 9 4 5 1028.9 1028.9 0.0
29/06:00am 7.9 6.3 7.8 99 0.0 SW 6 6 3 3 1028.7 1028.7 0.0
29/05:35am 7.5 5.2 7.4 99 0.0 NNW 9 9 5 5 1028.6 1028.6 0.0
29/05:30am 7.4 5.4 7.3 99 0.0 NNW 7 9 4 5 1028.4 1028.4 0.0
29/05:10am 7.4 5.1 7.3 99 0.0 NNW 9 11 5 6 1028.2 1028.2 0.0
29/05:00am 7.9 6.1 7.8 99 0.0 NW 7 11 4 6 1028.2 1028.2 0.0
29/04:30am 7.6 5.3 7.5 99 0.0 WNW 9 9 5 5 1028.3 1028.3 0.0
29/04:06am 7.5 5.6 7.4 99 0.0 WNW 7 9 4 5 1028.3 1028.3 0.0
29/04:00am 7.4 5.4 7.3 99 0.0 WNW 7 11 4 6 1028.3 1028.3 0.0
29/03:30am 7.7 5.8 7.6 99 0.0 W 7 9 4 5 1028.2 1028.2 0.0
29/03:00am 8.0 6.4 8.0 100 0.0 WNW 6 7 3 4 1028.4 1028.4 0.0
29/02:30am 7.3 6.7 7.2 99 0.0 CALM 0 4 0 2 1028.6 1028.6 0.0
29/02:00am 6.3 3.7 6.2 99 0.0 WNW 9 9 5 5 1028.7 1028.7 0.0
29/01:41am 5.8 3.5 5.7 99 0.0 WNW 7 11 4 6 1028.7 1028.7 0.0
29/01:30am 5.9 3.2 5.8 99 0.0 WNW 9 11 5 6 1028.7 1028.7 0.0
29/01:12am 5.4 2.6 5.3 99 0.0 NW 9 9 5 5 1028.5 1028.5 0.0
29/01:00am 6.0 3.7 5.9 99 0.0 NW 7 9 4 5 1028.5 1028.5 0.0
29/12:56am 5.6 3.3 5.5 99 0.0 NW 7 9 4 5 1028.6 1028.6 0.0
29/12:46am 5.9 3.6 5.8 99 0.0 NW 7 9 4 5 1028.6 1028.6 0.0
29/12:30am 6.2 4.0 6.1 99 0.0 WNW 7 9 4 5 1028.6 1028.6 0.0
29/12:19am 6.1 3.9 6.0 99 0.0 WNW 7 9 4 5 1028.6 1028.6 0.0
29/12:00am 6.1 3.5 6.0 99 0.0 WNW 9 13 5 7 1028.6 1028.6 0.0
 
Date/Time
EST
Temp
°C
App
Temp
°C
Dew
Point
Rel
Hum
%
Delta-T
°C
Wind Press
QNH
hPa
Press
MSL
hPa
Rain
since 9 am
mm
Dir
 
Spd
km/h
Gust
km/h
Spd
kts
Gust
kts
28/11:30pm 6.4 3.5 6.3 99 0.0 W 11 11 6 6 1028.6 1028.6 0.0
28/11:26pm 6.6 3.7 6.5 99 0.0 W 11 11 6 6 1028.6 1028.6 0.0
28/11:14pm 6.8 4.3 6.7 99 0.0 W 9 11 5 6 1028.6 1028.6 0.0
28/11:00pm 7.9 6.1 7.8 99 0.0 WNW 7 9 4 5 1028.6 1028.6 0.0
28/10:30pm 7.5 4.8 7.4 99 0.0 NW 11 13 6 7 1028.8 1028.8 0.0
28/10:17pm 8.1 5.9 8.0 99 0.0 NW 9 11 5 6 1028.8 1028.8 0.0
28/10:00pm 8.0 5.4 7.9 99 0.0 NNW 11 13 6 7 1028.9 1028.9 0.0
28/09:42pm 8.1 6.3 8.0 99 0.0 WNW 7 9 4 5 1029.0 1029.0 0.0
28/09:30pm 9.3 7.4 9.2 99 0.0 W 9 9 5 5 1029.0 1029.0 0.0
28/09:00pm 9.3 7.4 9.2 99 0.0 WSW 9 11 5 6 1028.9 1028.9 0.0
28/08:30pm 10.3 9.0 10.1 99 0.1 W 7 11 4 6 1028.8 1028.8 0.0
28/08:26pm 10.1 8.8 9.9 99 0.1 W 7 9 4 5 1028.7 1028.7 0.0
28/08:00pm 9.6 7.7 9.1 97 0.2 WSW 9 11 5 6 1028.4 1028.4 0.0
28/07:30pm 10.6 9.0 10.3 98 0.2 SW 9 13 5 7 1028.2 1028.2 0.0
28/07:08pm 10.3 7.8 9.8 97 0.3 SSW 13 17 7 9 1028.0 1028.0 0.0
28/07:00pm 10.2 7.2 9.4 95 0.4 SSW 15 17 8 9 1028.0 1028.0 0.0
28/06:35pm 11.3 9.2 9.7 90 0.8 SSW 11 15 6 8 1027.9 1027.9 0.0
28/06:30pm 11.0 9.4 8.9 87 1.0 S 7 15 4 8 1027.8 1027.8 0.0
28/06:00pm 13.3 12.1 9.4 77 2.0 ENE 6 7 3 4 1027.4 1027.4 0.0
28/05:30pm 14.6 12.8 9.4 71 2.7 E 9 11 5 6 1027.2 1027.2 0.0
28/05:00pm 15.1 13.0 9.7 70 2.8 E 11 13 6 7 1027.0 1027.0 0.0
28/04:30pm 15.2 12.8 10.0 71 2.7 E 13 15 7 8 1026.9 1026.9 0.0
28/04:00pm 15.9 13.2 10.2 69 3.0 E 15 17 8 9 1026.9 1026.9 0.0
28/03:30pm 16.6 14.2 10.0 65 3.5 E 13 15 7 8 1026.8 1026.8 0.0
28/03:00pm 16.2 13.5 8.9 62 3.7 ESE 13 15 7 8 1026.8 1026.8 0.0
28/02:30pm 17.0 14.7 8.9 59 4.2 ESE 11 15 6 8 1026.9 1026.9 0.0
28/02:00pm 16.4 14.7 9.8 65 3.4 ESE 9 11 5 6 1027.0 1027.0 0.0
28/01:30pm 15.5 13.4 11.1 75 2.3 ESE 13 15 7 8 1027.2 1027.2 0.0
28/01:00pm 14.3 12.1 10.7 79 1.9 SE 13 15 7 8 1027.7 1027.7 0.0
28/12:30pm 14.4 12.8 11.4 82 1.6 SE 11 13 6 7 1028.1 1028.1 0.0
28/12:00pm 14.3 13.7 10.5 78 2.0 SE 4 7 2 4 1028.4 1028.4 0.0
28/11:30am 13.3 13.2 10.8 85 1.3 ENE 2 9 1 5 1028.7 1028.7 0.0
28/11:00am 11.9 11.7 11.7 99 0.1 NE 4 7 2 4 1029.0 1029.0 0.0
28/10:30am 10.7 10.9 10.7 100 0.0 CALM 0 6 0 3 1029.4 1029.4 0.0
28/10:00am 9.0 8.8 9.0 100 0.0 CALM 0 0 0 0 1029.6 1029.6 0.0
28/09:30am 7.6 6.7 7.6 100 0.0 N 2 6 1 3 1029.7 1029.7 0.0
28/09:00am 6.3 5.5 6.3 100 0.0 CALM 0 0 0 0 1029.8 1029.8 0.2
28/08:30am 5.7 3.6 5.7 100 0.0 NW 6 6 3 3 1029.8 1029.8 0.2
28/08:00am 5.2 3.7 5.2 100 0.0 N 2 6 1 3 1029.5 1029.5 0.2
28/07:50am 4.8 2.5 4.8 100 0.0 N 6 6 3 3 1029.4 1029.4 0.2
28/07:32am 4.1 2.8 4.1 100 0.0 CALM 0 0 0 0 1029.4 1029.4 0.2
28/07:30am 4.1 2.8 4.1 100 0.0 CALM 0 0 0 0 1029.4 1029.4 0.2
28/07:17am 3.5 2.1 3.5 100 0.0 CALM 0 2 0 1 1029.3 1029.3 0.2
28/07:00am 3.4 0.8 3.4 100 0.0 N 6 7 3 4 1029.2 1029.2 0.2
28/06:30am 3.1 0.3 3.0 99 0.0 N 7 7 4 4 1029.2 1029.2 0.2
28/06:28am 3.1 0.3 3.0 99 0.0 N 7 7 4 4 1029.2 1029.2 0.2
28/06:11am 4.7 2.4 4.7 100 0.0 N 6 7 3 4 1029.1 1029.1 0.2
28/06:00am 4.9 2.0 4.9 100 0.0 NNE 9 11 5 6 1028.9 1028.9 0.2
28/05:30am 6.1 3.9 6.1 100 0.0 NNE 7 9 4 5 1028.6 1028.6 0.2
28/05:00am 6.9 4.9 6.9 100 0.0 NE 7 9 4 5 1028.6 1028.6 0.2
28/04:30am 7.2 5.8 7.2 100 0.0 NNW 4 7 2 4 1028.6 1028.6 0.2
28/04:00am 7.5 6.9 7.5 100 0.0 CALM 0 0 0 0 1028.5 1028.5 0.0
28/03:34am 8.0 6.4 8.0 100 0.0 NW 6 7 3 4 1028.5 1028.5 0.0
28/03:30am 8.1 6.5 8.1 100 0.0 NW 6 7 3 4 1028.5 1028.5 0.0
28/03:02am 8.5 7.0 8.5 100 0.0 NW 6 9 3 5 1028.6 1028.6 0.0
28/03:00am 8.5 6.8 8.5 100 0.0 NW 7 9 4 5 1028.6 1028.6 0.0
28/02:32am 8.9 7.9 8.9 100 0.0 NW 4 9 2 5 1028.8 1028.8 0.0
28/02:30am 8.9 7.9 8.9 100 0.0 NW 4 7 2 4 1028.8 1028.8 0.0
28/02:29am 8.9 7.9 8.9 100 0.0 NW 4 7 2 4 1028.8 1028.8 0.0
28/02:00am 8.9 7.9 8.9 100 0.0 NNW 4 6 2 3 1028.9 1028.9 0.0
28/01:59am 8.9 7.9 8.9 100 0.0 NNW 4 6 2 3 1028.9 1028.9 0.0
28/01:31am 9.3 8.0 9.3 100 0.0 WSW 6 7 3 4 1029.0 1029.0 0.0
28/01:30am 9.3 8.0 9.3 100 0.0 WSW 6 7 3 4 1029.0 1029.0 0.0
28/01:28am 9.3 8.0 9.3 100 0.0 WSW 6 7 3 4 1029.0 1029.0 0.0
28/01:27am 9.3 8.0 9.3 100 0.0 W 6 7 3 4 1029.1 1029.1 0.0
28/01:26am 9.3 8.4 9.3 100 0.0 W 4 7 2 4 1029.1 1029.1 0.0
28/01:24am 9.3 8.4 9.3 100 0.0 W 4 7 2 4 1029.1 1029.1 0.0
28/01:23am 9.3 8.4 9.3 100 0.0 W 4 7 2 4 1029.1 1029.1 0.0
28/01:00am 9.5 8.7 9.5 100 0.0 NW 4 7 2 4 1029.1 1029.1 0.0
28/12:30am 9.6 8.4 9.6 100 0.0 W 6 9 3 5 1029.0 1029.0 0.0
28/12:00am 9.8 8.7 9.8 100 0.0 WNW 6 9 3 5 1029.2 1029.2 0.0
 
Date/Time
EST
Temp
°C
App
Temp
°C
Dew
Point
Rel
Hum
%
Delta-T
°C
Wind Press
QNH
hPa
Press
MSL
hPa
Rain
since 9 am
mm
Dir
 
Spd
km/h
Gust
km/h
Spd
kts
Gust
kts
27/11:30pm 9.7 8.5 9.7 100 0.0 NNW 6 7 3 4 1029.3 1029.3 0.0
27/11:00pm 9.7 9.3 9.7 100 0.0 NW 2 7 1 4 1029.2 1029.2 0.0
27/10:30pm 9.0 7.6 9.0 100 0.0 NNW 6 7 3 4 1029.2 1029.2 0.0
27/10:00pm 8.6 6.6 8.6 100 0.0 N 9 11 5 6 1028.9 1028.9 0.0
27/09:30pm 7.5 5.6 7.4 99 0.0 NNW 7 11 4 6 1028.8 1028.8 0.0
27/09:00pm 6.9 4.5 6.8 99 0.0 NNW 9 9 5 5 1028.8 1028.8 0.0
27/08:30pm 7.5 5.2 7.4 99 0.0 WNW 9 9 5 5 1028.8 1028.8 0.0
27/08:01pm 8.1 6.5 8.0 99 0.0 NNW 6 7 3 4 1028.4 1028.4 0.0
27/08:00pm 8.0 6.4 7.9 99 0.0 NW 6 7 3 4 1028.4 1028.4 0.0
27/07:30pm 8.6 8.3 8.5 99 0.0 CALM 0 0 0 0 1028.3 1028.3 0.0
27/07:00pm 9.7 8.3 9.6 99 0.0 SE 7 9 4 5 1028.1 1028.1 0.0
27/06:55pm 10.0 8.7 9.9 99 0.1 SE 7 9 4 5 1028.0 1028.0 0.0
27/06:53pm 10.0 8.7 9.9 99 0.1 SE 7 9 4 5 1027.9 1027.9 0.0
27/06:49pm 9.9 8.2 9.8 99 0.1 SE 9 9 5 5 1028.0 1028.0 0.0
27/06:30pm 10.3 8.6 10.0 98 0.2 SSE 9 9 5 5 1027.9 1027.9 0.0
27/06:00pm 10.5 9.1 9.7 95 0.4 S 7 9 4 5 1027.9 1027.9 0.0
27/05:45pm 11.2 9.6 10.1 93 0.6 SSE 9 13 5 7 1027.6 1027.6 0.0
27/05:30pm 12.1 10.7 10.8 92 0.7 S 9 13 5 7 1027.5 1027.5 0.0
27/05:00pm 13.1 10.3 11.5 90 0.8 S 17 20 9 11 1027.6 1027.6 0.0
27/04:30pm 14.3 12.5 12.0 86 1.2 SE 13 19 7 10 1027.3 1027.3 0.0
27/04:00pm 16.1 14.5 12.7 80 1.9 ESE 13 15 7 8 1027.0 1027.0 0.0
27/03:30pm 16.5 14.9 12.7 78 2.1 ESE 13 15 7 8 1027.0 1027.0 0.0
27/03:00pm 17.1 14.7 12.6 75 2.5 ESE 17 20 9 11 1026.9 1026.9 0.0
27/02:30pm 17.7 16.1 11.7 68 3.3 SSE 11 15 6 8 1026.8 1026.8 0.0
27/02:00pm 17.6 15.5 11.2 66 3.4 S 13 20 7 11 1026.9 1026.9 0.0
27/01:30pm 17.4 15.7 11.2 67 3.4 SSW 11 19 6 10 1027.2 1027.2 0.0
27/01:00pm 17.1 14.7 10.2 64 3.6 SW 13 17 7 9 1027.5 1027.5 0.0
27/12:30pm 16.7 14.8 10.5 67 3.3 SW 11 15 6 8 1027.8 1027.8 0.0
27/12:00pm 15.9 14.9 10.9 72 2.6 SSW 7 13 4 7 1028.0 1028.0 0.0
27/11:30am 15.1 14.4 11.5 79 1.9 WSW 6 11 3 6 1028.4 1028.4 0.0
27/11:00am 14.3 14.0 12.7 90 0.9 WNW 6 11 3 6 1028.6 1028.6 0.0
27/10:30am 12.4 12.4 12.4 100 0.0 W 4 7 2 4 1028.6 1028.6 0.0
27/10:00am 11.0 11.0 11.0 100 0.0 W 2 7 1 4 1028.7 1028.7 0.0
27/09:30am 9.4 8.0 9.4 100 0.0 W 7 11 4 6 1028.7 1028.7 0.0
27/09:00am 8.2 6.6 8.2 100 0.0 W 6 7 3 4 1028.5 1028.5 0.2
27/08:30am 7.4 5.5 7.4 100 0.0 N 7 9 4 5 1028.3 1028.3 0.2
27/08:00am 6.1 4.1 6.1 100 0.0 NNE 6 7 3 4 1028.1 1028.1 0.2
27/07:32am 5.0 2.5 5.0 100 0.0 N 7 9 4 5 1027.8 1027.8 0.2
27/07:30am 4.8 2.3 4.8 100 0.0 N 7 9 4 5 1027.8 1027.8 0.2
27/07:23am 4.6 2.1 4.6 100 0.0 NNW 7 9 4 5 1027.8 1027.8 0.2
27/07:00am 5.2 2.8 5.2 100 0.0 NNW 7 9 4 5 1027.4 1027.4 0.2
27/06:30am 6.1 4.1 6.1 100 0.0 NNW 6 7 3 4 1027.3 1027.3 0.0
27/06:00am 6.5 4.4 6.5 100 0.0 NW 7 9 4 5 1027.0 1027.0 0.0
27/05:30am 6.8 4.4 6.8 100 0.0 NW 9 11 5 6 1026.8 1026.8 0.0
27/05:21am 7.0 4.6 7.0 100 0.0 NW 9 11 5 6 1026.8 1026.8 0.0
27/05:16am 6.9 4.5 6.9 100 0.0 NW 9 11 5 6 1026.9 1026.9 0.0
27/05:00am 7.1 4.7 7.1 100 0.0 NW 9 11 5 6 1026.8 1026.8 0.0
27/04:30am 7.8 6.2 7.8 100 0.0 WNW 6 7 3 4 1026.7 1026.7 0.0
27/04:00am 8.0 6.2 8.0 100 0.0 W 7 9 4 5 1026.6 1026.6 0.0
27/03:30am 7.2 5.2 7.2 100 0.0 WNW 7 9 4 5 1026.5 1026.5 0.0
27/03:12am 8.3 6.6 8.3 100 0.0 NW 7 9 4 5 1026.3 1026.3 0.0
27/03:10am 8.3 6.6 8.3 100 0.0 WNW 7 9 4 5 1026.3 1026.3 0.0
27/03:00am 9.1 7.6 9.1 100 0.0 WNW 7 9 4 5 1026.3 1026.3 0.0
27/02:30am 10.0 7.2 10.0 100 0.0 WNW 15 17 8 9 1026.4 1026.4 0.0

Other Formats:

Comma delimited format used in spreadsheet applications
http://www.bom.gov.au/fwo/IDV60801/IDV60801.94854.axf

JavaScript Object Notation format (JSON) in row-major order
http://www.bom.gov.au/fwo/IDV60801/IDV60801.94854.json